createdAt,value
2022-10-22T00:00:09.235Z,13.89
2022-10-22T00:00:19.499Z,13.87
2022-10-22T00:00:29.778Z,13.89
2022-10-22T00:00:40.061Z,13.89
2022-10-22T00:00:50.332Z,13.87
2022-10-22T00:01:00.583Z,13.87
2022-10-22T00:01:10.861Z,13.89
2022-10-22T00:01:21.123Z,13.87
2022-10-22T00:01:31.386Z,13.87
2022-10-22T00:01:41.648Z,13.87
2022-10-22T00:01:51.910Z,13.87
2022-10-22T00:02:02.173Z,13.86
2022-10-22T00:02:12.434Z,13.87
2022-10-22T00:02:22.768Z,13.87
2022-10-22T00:02:33.083Z,13.89
2022-10-22T00:02:43.431Z,13.86
2022-10-22T00:02:53.735Z,13.86
2022-10-22T00:03:04.106Z,13.87
2022-10-22T00:03:14.344Z,13.89
2022-10-22T00:03:24.607Z,13.87
2022-10-22T00:03:34.870Z,13.87
2022-10-22T00:03:45.131Z,13.87
2022-10-22T00:03:55.395Z,13.87
2022-10-22T00:04:05.661Z,13.87
2022-10-22T00:04:15.924Z,13.89
2022-10-22T00:04:26.954Z,13.87
2022-10-22T00:04:36.660Z,13.87
2022-10-22T00:04:46.894Z,13.86
2022-10-22T00:04:57.315Z,13.87
2022-10-22T00:05:07.361Z,13.85
2022-10-22T00:05:17.618Z,13.87
2022-10-22T00:05:27.882Z,13.87
2022-10-22T00:05:38.145Z,13.86
2022-10-22T00:05:48.407Z,13.87
2022-10-22T00:05:58.675Z,13.85
2022-10-22T00:06:08.940Z,13.87
2022-10-22T00:06:19.211Z,13.87
2022-10-22T00:06:29.474Z,13.86
2022-10-22T00:06:39.735Z,13.86
2022-10-22T00:06:49.998Z,13.87
2022-10-22T00:07:00.258Z,13.86
2022-10-22T00:07:10.521Z,13.89
2022-10-22T00:07:20.784Z,13.86
2022-10-22T00:07:31.045Z,13.87
2022-10-22T00:07:41.632Z,13.87
2022-10-22T00:07:51.647Z,13.87
2022-10-22T00:08:01.909Z,13.87
2022-10-22T00:08:12.170Z,13.87
2022-10-22T00:08:22.431Z,13.87
2022-10-22T00:08:32.818Z,13.87
2022-10-22T00:08:43.136Z,13.87
2022-10-22T00:08:53.470Z,13.86
2022-10-22T00:09:03.796Z,13.85
2022-10-22T00:09:14.150Z,13.86
2022-10-22T00:09:24.401Z,13.85
2022-10-22T00:09:34.666Z,13.85
2022-10-22T00:09:44.925Z,13.86
2022-10-22T00:09:55.185Z,13.86
2022-10-22T00:10:05.449Z,13.86
2022-10-22T00:10:15.709Z,13.86
2022-10-22T00:10:25.972Z,13.85
2022-10-22T00:10:36.234Z,13.85
2022-10-22T00:10:46.493Z,13.86
2022-10-22T00:10:56.757Z,13.86
2022-10-22T00:11:07.018Z,13.86
2022-10-22T00:11:17.293Z,13.86
2022-10-22T00:11:27.554Z,13.85
2022-10-22T00:11:37.817Z,13.86
2022-10-22T00:11:48.079Z,13.86
2022-10-22T00:11:58.341Z,13.86
2022-10-22T00:12:08.622Z,13.85
2022-10-22T00:12:18.886Z,13.86
2022-10-22T00:12:29.145Z,13.86
2022-10-22T00:12:39.408Z,13.85
2022-10-22T00:12:49.668Z,13.87
2022-10-22T00:12:59.931Z,13.85
2022-10-22T00:13:10.192Z,13.85
2022-10-22T00:13:20.455Z,13.83
2022-10-22T00:13:30.718Z,13.83
2022-10-22T00:13:41.031Z,13.85
2022-10-22T00:13:51.301Z,13.85
2022-10-22T00:14:01.546Z,13.85
2022-10-22T00:14:11.829Z,13.85
2022-10-22T00:14:22.066Z,13.83
2022-10-22T00:14:32.330Z,13.83
2022-10-22T00:14:42.590Z,13.86
2022-10-22T00:14:52.857Z,13.83
2022-10-22T00:15:03.135Z,13.86
2022-10-22T00:15:13.376Z,13.83
2022-10-22T00:15:23.639Z,13.85
2022-10-22T00:15:33.900Z,13.85
2022-10-22T00:15:44.160Z,13.86
2022-10-22T00:15:54.423Z,13.83
2022-10-22T00:16:04.694Z,13.83
2022-10-22T00:16:14.961Z,13.83
2022-10-22T00:16:25.220Z,13.83
2022-10-22T00:16:35.484Z,13.85
2022-10-22T00:16:45.746Z,13.83
2022-10-22T00:16:56.008Z,13.82
2022-10-22T00:17:10.589Z,13.82
2022-10-22T00:17:17.699Z,13.83
2022-10-22T00:17:27.102Z,13.82
2022-10-22T00:17:37.760Z,13.83
2022-10-22T00:17:47.595Z,13.83
2022-10-22T00:17:57.865Z,13.82
2022-10-22T00:18:08.121Z,13.83
2022-10-22T00:18:18.542Z,13.82
2022-10-22T00:18:28.802Z,13.82
2022-10-22T00:18:39.064Z,13.80
2022-10-22T00:18:49.323Z,13.83
2022-10-22T00:18:59.587Z,13.82
2022-10-22T00:19:09.848Z,13.82
2022-10-22T00:19:20.109Z,13.83
2022-10-22T00:19:30.371Z,13.83
2022-10-22T00:19:40.632Z,13.83
2022-10-22T00:19:50.899Z,13.82
2022-10-22T00:20:01.161Z,13.82
2022-10-22T00:20:11.418Z,13.83
2022-10-22T00:20:21.679Z,13.82
2022-10-22T00:20:31.940Z,13.83
2022-10-22T00:20:42.219Z,13.82
2022-10-22T00:20:52.479Z,13.80
2022-10-22T00:21:02.750Z,13.82
2022-10-22T00:21:13.001Z,13.82
2022-10-22T00:21:23.264Z,13.82
2022-10-22T00:21:33.524Z,13.80
2022-10-22T00:21:43.786Z,13.82
2022-10-22T00:21:54.053Z,13.82
2022-10-22T00:22:04.312Z,13.80
2022-10-22T00:22:14.572Z,13.80
2022-10-22T00:22:24.834Z,13.82
2022-10-22T00:22:35.092Z,13.82
2022-10-22T00:22:45.390Z,13.82
2022-10-22T00:22:55.617Z,13.82
2022-10-22T00:23:05.883Z,13.79
2022-10-22T00:23:16.138Z,13.82
2022-10-22T00:23:26.400Z,13.82
2022-10-22T00:23:36.664Z,13.82
2022-10-22T00:23:46.927Z,13.83
2022-10-22T00:23:57.245Z,13.83
2022-10-22T00:24:07.507Z,13.80
2022-10-22T00:24:17.774Z,13.80
2022-10-22T00:24:28.027Z,13.80
2022-10-22T00:24:38.287Z,13.80
2022-10-22T00:24:48.549Z,13.80
2022-10-22T00:24:58.809Z,13.82
2022-10-22T00:25:09.071Z,13.80
2022-10-22T00:25:19.332Z,13.80
2022-10-22T00:25:29.594Z,13.80
2022-10-22T00:25:39.854Z,13.80
2022-10-22T00:25:50.130Z,13.79
2022-10-22T00:26:00.391Z,13.82
2022-10-22T00:26:10.652Z,13.80
2022-10-22T00:26:20.912Z,13.79
2022-10-22T00:26:31.176Z,13.80
2022-10-22T00:26:41.438Z,13.80
2022-10-22T00:26:51.701Z,13.82
2022-10-22T00:27:01.959Z,13.80
2022-10-22T00:27:12.222Z,13.79
2022-10-22T00:27:22.482Z,13.82
2022-10-22T00:27:32.743Z,13.80
2022-10-22T00:27:43.241Z,13.80
2022-10-22T00:27:53.402Z,13.83
2022-10-22T00:28:03.667Z,13.82
2022-10-22T00:28:13.924Z,13.80
2022-10-22T00:28:24.183Z,13.80
2022-10-22T00:28:34.446Z,13.80
2022-10-22T00:28:44.707Z,13.79
2022-10-22T00:28:54.969Z,13.80
2022-10-22T00:29:05.231Z,13.80
2022-10-22T00:29:15.514Z,13.80
2022-10-22T00:29:25.753Z,13.79
2022-10-22T00:29:36.013Z,13.80
2022-10-22T00:29:46.274Z,13.80
2022-10-22T00:29:56.671Z,13.80
2022-10-22T00:30:06.929Z,13.80
2022-10-22T00:30:17.190Z,13.80
2022-10-22T00:30:27.452Z,13.82
2022-10-22T00:30:37.714Z,13.80
2022-10-22T00:30:47.987Z,13.80
2022-10-22T00:30:58.249Z,13.79
2022-10-22T00:31:08.509Z,13.82
2022-10-22T00:31:18.772Z,13.78
2022-10-22T00:31:29.031Z,13.80
2022-10-22T00:31:39.294Z,13.78
2022-10-22T00:31:49.623Z,13.80
2022-10-22T00:31:59.879Z,13.79
2022-10-22T00:32:10.139Z,13.80
2022-10-22T00:32:20.402Z,13.79
2022-10-22T00:32:30.661Z,13.80
2022-10-22T00:32:41.333Z,13.78
2022-10-22T00:32:51.292Z,13.78
2022-10-22T00:33:01.560Z,13.79
2022-10-22T00:33:11.828Z,13.79
2022-10-22T00:33:22.092Z,13.79
2022-10-22T00:33:32.350Z,13.80
2022-10-22T00:33:42.611Z,13.78
2022-10-22T00:33:52.872Z,13.79
2022-10-22T00:34:03.134Z,13.80
2022-10-22T00:34:13.395Z,13.79
2022-10-22T00:34:23.660Z,13.78
2022-10-22T00:34:33.920Z,13.78
2022-10-22T00:34:44.183Z,13.78
2022-10-22T00:34:54.441Z,13.79
2022-10-22T00:35:04.830Z,13.78
2022-10-22T00:35:15.088Z,13.79
2022-10-22T00:35:25.351Z,13.76
2022-10-22T00:35:35.611Z,13.78
2022-10-22T00:35:45.883Z,13.78
2022-10-22T00:35:56.147Z,13.78
2022-10-22T00:36:06.409Z,13.78
2022-10-22T00:36:16.669Z,13.78
2022-10-22T00:36:26.932Z,13.79
2022-10-22T00:36:37.192Z,13.78
2022-10-22T00:36:47.456Z,13.78
2022-10-22T00:36:57.716Z,13.78
2022-10-22T00:37:07.978Z,13.78
2022-10-22T00:37:18.286Z,13.76
2022-10-22T00:37:28.550Z,13.78
2022-10-22T00:37:38.810Z,13.76
2022-10-22T00:37:49.072Z,13.78
2022-10-22T00:37:59.333Z,13.78
2022-10-22T00:38:09.596Z,13.78
2022-10-22T00:38:19.855Z,13.78
2022-10-22T00:38:30.118Z,13.76
2022-10-22T00:38:40.378Z,13.75
2022-10-22T00:38:50.639Z,13.78
2022-10-22T00:39:00.901Z,13.78
2022-10-22T00:39:11.164Z,13.75
2022-10-22T00:39:21.424Z,13.76
2022-10-22T00:39:31.686Z,13.76
2022-10-22T00:39:41.947Z,13.76
2022-10-22T00:39:52.212Z,13.76
2022-10-22T00:40:02.476Z,13.76
2022-10-22T00:40:12.734Z,13.76
2022-10-22T00:40:22.994Z,13.75
2022-10-22T00:40:33.255Z,13.76
2022-10-22T00:40:43.515Z,13.78
2022-10-22T00:40:53.843Z,13.78
2022-10-22T00:41:04.072Z,13.76
2022-10-22T00:41:14.334Z,13.76
2022-10-22T00:41:24.593Z,13.76
2022-10-22T00:41:34.856Z,13.76
2022-10-22T00:41:45.116Z,13.76
2022-10-22T00:41:55.379Z,13.78
2022-10-22T00:42:05.640Z,13.76
2022-10-22T00:42:15.904Z,13.76
2022-10-22T00:42:26.164Z,13.75
2022-10-22T00:42:36.425Z,13.75
2022-10-22T00:42:46.688Z,13.76
2022-10-22T00:42:56.949Z,13.76
2022-10-22T00:43:07.210Z,13.76
2022-10-22T00:43:17.474Z,13.73
2022-10-22T00:43:27.735Z,13.75
2022-10-22T00:43:37.998Z,13.78
2022-10-22T00:43:48.259Z,13.75
2022-10-22T00:43:58.520Z,13.75
2022-10-22T00:44:08.781Z,13.75
2022-10-22T00:44:19.068Z,13.76
2022-10-22T00:44:29.306Z,13.76
2022-10-22T00:44:39.572Z,13.76
2022-10-22T00:44:49.830Z,13.75
2022-10-22T00:45:00.102Z,13.76
2022-10-22T00:45:10.353Z,13.73
2022-10-22T00:45:20.625Z,13.75
2022-10-22T00:45:30.877Z,13.73
2022-10-22T00:45:41.141Z,13.75
2022-10-22T00:45:51.401Z,13.73
2022-10-22T00:46:01.678Z,13.75
2022-10-22T00:46:11.937Z,13.75
2022-10-22T00:46:22.200Z,13.73
2022-10-22T00:46:32.465Z,13.75
2022-10-22T00:46:42.723Z,13.75
2022-10-22T00:46:52.987Z,13.73
2022-10-22T00:47:03.247Z,13.75
2022-10-22T00:47:13.508Z,13.73
2022-10-22T00:47:23.773Z,13.73
2022-10-22T00:47:34.030Z,13.73
2022-10-22T00:47:44.293Z,13.75
2022-10-22T00:47:54.552Z,13.75
2022-10-22T00:48:04.818Z,13.75
2022-10-22T00:48:15.074Z,13.76
2022-10-22T00:48:25.338Z,13.75
2022-10-22T00:48:35.599Z,13.73
2022-10-22T00:48:45.858Z,13.71
2022-10-22T00:48:56.118Z,13.75
2022-10-22T00:49:06.387Z,13.73
2022-10-22T00:49:16.639Z,13.73
2022-10-22T00:49:26.902Z,13.73
2022-10-22T00:49:37.162Z,13.75
2022-10-22T00:49:47.425Z,13.75
2022-10-22T00:49:57.738Z,13.71
2022-10-22T00:50:07.968Z,13.73
2022-10-22T00:50:18.228Z,13.75
2022-10-22T00:50:28.490Z,13.73
2022-10-22T00:50:38.751Z,13.75
2022-10-22T00:50:49.012Z,13.71
2022-10-22T00:50:59.287Z,13.73
2022-10-22T00:51:09.550Z,13.73
2022-10-22T00:51:19.811Z,13.75
2022-10-22T00:51:30.173Z,13.75
2022-10-22T00:51:40.381Z,13.75
2022-10-22T00:51:50.644Z,13.73
2022-10-22T00:52:00.912Z,13.73
2022-10-22T00:52:11.172Z,13.71
2022-10-22T00:52:21.431Z,13.73
2022-10-22T00:52:31.690Z,13.73
2022-10-22T00:52:42.186Z,13.73
2022-10-22T00:52:52.359Z,13.73
2022-10-22T00:53:02.618Z,13.71
2022-10-22T00:53:12.879Z,13.73
2022-10-22T00:53:23.140Z,13.73
2022-10-22T00:53:33.402Z,13.75
2022-10-22T00:53:43.662Z,13.75
2022-10-22T00:53:53.923Z,13.75
2022-10-22T00:54:04.184Z,13.73
2022-10-22T00:54:14.447Z,13.73
2022-10-22T00:54:24.706Z,13.73
2022-10-22T00:54:34.971Z,13.73
2022-10-22T00:54:45.231Z,13.75
2022-10-22T00:54:55.493Z,13.73
2022-10-22T00:55:05.752Z,13.75
2022-10-22T00:55:16.017Z,13.73
2022-10-22T00:55:26.277Z,13.73
2022-10-22T00:55:36.541Z,13.73
2022-10-22T00:55:46.798Z,13.73
2022-10-22T00:55:57.076Z,13.75
2022-10-22T00:56:07.337Z,13.73
2022-10-22T00:56:17.597Z,13.75
2022-10-22T00:56:27.857Z,13.70
2022-10-22T00:56:38.119Z,13.73
2022-10-22T00:56:48.380Z,13.71
2022-10-22T00:56:58.641Z,13.73
2022-10-22T00:57:08.901Z,13.73
2022-10-22T00:57:19.162Z,13.71
2022-10-22T00:57:29.425Z,13.71
2022-10-22T00:57:39.687Z,13.73
2022-10-22T00:57:49.947Z,13.73
2022-10-22T00:58:00.209Z,13.73
2022-10-22T00:58:10.471Z,13.73
2022-10-22T00:58:20.729Z,13.73
2022-10-22T00:58:30.991Z,13.71
2022-10-22T00:58:41.252Z,13.71
2022-10-22T00:58:51.514Z,13.71
2022-10-22T00:59:01.857Z,13.73
2022-10-22T00:59:12.119Z,13.71
2022-10-22T00:59:22.400Z,13.73
2022-10-22T00:59:32.641Z,13.73
2022-10-22T00:59:42.904Z,13.71
2022-10-22T00:59:53.166Z,13.73
2022-10-22T01:00:03.431Z,13.73
2022-10-22T01:00:13.690Z,13.71
2022-10-22T01:00:23.954Z,13.71
2022-10-22T01:00:34.263Z,13.73
2022-10-22T01:00:44.582Z,13.71
2022-10-22T01:00:54.912Z,13.70
2022-10-22T01:01:05.121Z,13.70
2022-10-22T01:01:15.445Z,13.70
2022-10-22T01:01:25.785Z,13.71
2022-10-22T01:01:36.036Z,13.71
2022-10-22T01:01:46.295Z,13.70
2022-10-22T01:01:56.710Z,13.73
2022-10-22T01:02:06.971Z,13.71
2022-10-22T01:02:17.232Z,13.70
2022-10-22T01:02:27.493Z,13.71
2022-10-22T01:02:38.050Z,13.71
2022-10-22T01:02:48.073Z,13.71
2022-10-22T01:02:58.343Z,13.73
2022-10-22T01:03:08.595Z,13.68
2022-10-22T01:03:18.859Z,13.71
2022-10-22T01:03:29.117Z,13.71
2022-10-22T01:03:39.380Z,13.71
2022-10-22T01:03:49.640Z,13.71
2022-10-22T01:03:59.902Z,13.71
2022-10-22T01:04:10.164Z,13.70
2022-10-22T01:04:20.425Z,13.70
2022-10-22T01:04:30.686Z,13.70
2022-10-22T01:04:40.949Z,13.70
2022-10-22T01:04:51.209Z,13.71
2022-10-22T01:05:01.470Z,13.70
2022-10-22T01:05:11.733Z,13.68
2022-10-22T01:05:21.992Z,13.70
2022-10-22T01:05:32.253Z,13.70
2022-10-22T01:05:42.513Z,13.71
2022-10-22T01:05:52.774Z,13.71
2022-10-22T01:06:03.051Z,13.71
2022-10-22T01:06:13.310Z,13.70
2022-10-22T01:06:23.572Z,13.68
2022-10-22T01:06:33.833Z,13.68
2022-10-22T01:06:44.134Z,13.70
2022-10-22T01:06:54.394Z,13.70
2022-10-22T01:07:04.661Z,13.68
2022-10-22T01:07:14.920Z,13.68
2022-10-22T01:07:25.181Z,13.70
2022-10-22T01:07:35.448Z,13.68
2022-10-22T01:07:45.704Z,13.67
2022-10-22T01:07:55.964Z,13.70
2022-10-22T01:08:06.248Z,13.70
2022-10-22T01:08:16.489Z,13.68
2022-10-22T01:08:26.750Z,13.70
2022-10-22T01:08:37.056Z,13.68
2022-10-22T01:08:47.298Z,13.68
2022-10-22T01:08:57.814Z,13.68
2022-10-22T01:09:07.952Z,13.67
2022-10-22T01:09:18.203Z,13.68
2022-10-22T01:09:28.466Z,13.68
2022-10-22T01:09:38.718Z,13.68
2022-10-22T01:09:48.979Z,13.70
2022-10-22T01:09:59.242Z,13.68
2022-10-22T01:10:09.507Z,13.68
2022-10-22T01:10:19.765Z,13.70
2022-10-22T01:10:30.036Z,13.67
2022-10-22T01:10:40.288Z,13.68
2022-10-22T01:10:50.555Z,13.68
2022-10-22T01:11:00.828Z,13.68
2022-10-22T01:11:11.089Z,13.67
2022-10-22T01:11:21.347Z,13.67
2022-10-22T01:11:31.609Z,13.68
2022-10-22T01:11:41.869Z,13.70
2022-10-22T01:11:52.134Z,13.65
2022-10-22T01:12:02.399Z,13.68
2022-10-22T01:12:12.655Z,13.68
2022-10-22T01:12:22.917Z,13.67
2022-10-22T01:12:33.177Z,13.68
2022-10-22T01:12:43.643Z,13.67
2022-10-22T01:12:53.861Z,13.68
2022-10-22T01:13:04.119Z,13.67
2022-10-22T01:13:14.384Z,13.70
2022-10-22T01:13:24.655Z,13.68
2022-10-22T01:13:34.925Z,13.67
2022-10-22T01:13:45.186Z,13.67
2022-10-22T01:13:55.450Z,13.68
2022-10-22T01:14:05.710Z,13.67
2022-10-22T01:14:15.972Z,13.67
2022-10-22T01:14:26.253Z,13.68
2022-10-22T01:14:36.494Z,13.65
2022-10-22T01:14:46.756Z,13.68
2022-10-22T01:14:57.018Z,13.65
2022-10-22T01:15:07.278Z,13.65
2022-10-22T01:15:17.540Z,13.67
2022-10-22T01:15:27.816Z,13.67
2022-10-22T01:15:38.147Z,13.68
2022-10-22T01:15:48.409Z,13.64
2022-10-22T01:15:58.669Z,13.67
2022-10-22T01:16:08.944Z,13.65
2022-10-22T01:16:19.207Z,13.68
2022-10-22T01:16:29.466Z,13.67
2022-10-22T01:16:39.728Z,13.67
2022-10-22T01:16:49.989Z,13.65
2022-10-22T01:17:00.255Z,13.65
2022-10-22T01:17:10.599Z,13.65
2022-10-22T01:17:31.104Z,13.65
2022-10-22T01:17:41.784Z,13.68
2022-10-22T01:17:51.627Z,13.65
2022-10-22T01:18:01.888Z,13.68
2022-10-22T01:18:12.149Z,13.65
2022-10-22T01:18:22.413Z,13.65
2022-10-22T01:18:32.675Z,13.65
2022-10-22T01:18:42.936Z,13.64
2022-10-22T01:18:53.198Z,13.67
2022-10-22T01:19:03.460Z,13.65
2022-10-22T01:19:13.723Z,13.65
2022-10-22T01:19:23.984Z,13.65
2022-10-22T01:19:34.245Z,13.67
2022-10-22T01:19:44.510Z,13.67
2022-10-22T01:19:54.770Z,13.65
2022-10-22T01:20:05.029Z,13.65
2022-10-22T01:20:15.290Z,13.64
2022-10-22T01:20:25.553Z,13.67
2022-10-22T01:20:35.817Z,13.65
2022-10-22T01:20:46.076Z,13.65
2022-10-22T01:20:56.448Z,13.65
2022-10-22T01:21:06.725Z,13.65
2022-10-22T01:21:16.984Z,13.65
2022-10-22T01:21:27.247Z,13.64
2022-10-22T01:21:37.508Z,13.64
2022-10-22T01:21:47.769Z,13.64
2022-10-22T01:21:58.029Z,13.64
2022-10-22T01:22:08.292Z,13.65
2022-10-22T01:22:18.516Z,13.64
2022-10-22T01:22:28.786Z,13.65
2022-10-22T01:22:39.040Z,13.64
2022-10-22T01:22:49.302Z,13.65
2022-10-22T01:22:59.563Z,13.64
2022-10-22T01:23:09.833Z,13.65
2022-10-22T01:23:20.091Z,13.65
2022-10-22T01:23:30.350Z,13.65
2022-10-22T01:23:40.611Z,13.64
2022-10-22T01:23:50.875Z,13.64
2022-10-22T01:24:01.133Z,13.64
2022-10-22T01:24:11.397Z,13.64
2022-10-22T01:24:21.655Z,13.62
2022-10-22T01:24:31.916Z,13.65
2022-10-22T01:24:42.182Z,13.64
2022-10-22T01:24:52.438Z,13.64
2022-10-22T01:25:02.697Z,13.65
2022-10-22T01:25:12.960Z,13.62
2022-10-22T01:25:23.220Z,13.64
2022-10-22T01:25:33.482Z,13.64
2022-10-22T01:25:43.744Z,13.62
2022-10-22T01:25:54.007Z,13.64
2022-10-22T01:26:04.288Z,13.65
2022-10-22T01:26:14.657Z,13.64
2022-10-22T01:26:24.899Z,13.61
2022-10-22T01:26:35.160Z,13.62
2022-10-22T01:26:45.423Z,13.64
2022-10-22T01:26:55.713Z,13.60
2022-10-22T01:27:05.945Z,13.65
2022-10-22T01:27:16.208Z,13.64
2022-10-22T01:27:26.474Z,13.62
2022-10-22T01:27:36.735Z,13.64
2022-10-22T01:27:46.990Z,13.64
2022-10-22T01:27:57.302Z,13.64
2022-10-22T01:28:07.555Z,13.62
2022-10-22T01:28:17.819Z,13.62
2022-10-22T01:28:28.078Z,13.62
2022-10-22T01:28:38.341Z,13.62
2022-10-22T01:28:48.602Z,13.62
2022-10-22T01:28:58.864Z,13.62
2022-10-22T01:29:09.126Z,13.62
2022-10-22T01:29:19.388Z,13.62
2022-10-22T01:29:29.671Z,13.62
2022-10-22T01:29:39.911Z,13.62
2022-10-22T01:29:50.177Z,13.61
2022-10-22T01:30:00.440Z,13.61
2022-10-22T01:30:10.699Z,13.61
2022-10-22T01:30:20.961Z,13.62
2022-10-22T01:30:31.229Z,13.61
2022-10-22T01:30:41.483Z,13.62
2022-10-22T01:30:51.764Z,13.62
2022-10-22T01:31:02.008Z,13.62
2022-10-22T01:31:12.283Z,13.61
2022-10-22T01:31:22.544Z,13.62
2022-10-22T01:31:32.805Z,13.62
2022-10-22T01:31:43.072Z,13.61
2022-10-22T01:31:53.329Z,13.61
2022-10-22T01:32:03.591Z,13.62
2022-10-22T01:32:13.852Z,13.61
2022-10-22T01:32:24.114Z,13.60
2022-10-22T01:32:34.376Z,13.60
2022-10-22T01:32:44.637Z,13.61
2022-10-22T01:32:54.899Z,13.62
2022-10-22T01:33:05.160Z,13.62
2022-10-22T01:33:15.421Z,13.61
2022-10-22T01:33:25.683Z,13.61
2022-10-22T01:33:35.944Z,13.61
2022-10-22T01:33:46.206Z,13.60
2022-10-22T01:33:56.527Z,13.60
2022-10-22T01:34:06.790Z,13.60
2022-10-22T01:34:17.050Z,13.60
2022-10-22T01:34:27.313Z,13.62
2022-10-22T01:34:37.573Z,13.60
2022-10-22T01:34:47.994Z,13.61
2022-10-22T01:34:58.258Z,13.60
2022-10-22T01:35:08.519Z,13.60
2022-10-22T01:35:18.878Z,13.60
2022-10-22T01:35:29.188Z,13.60
2022-10-22T01:35:39.435Z,13.61
2022-10-22T01:35:49.696Z,13.58
2022-10-22T01:35:59.959Z,13.61
2022-10-22T01:36:10.222Z,13.60
2022-10-22T01:36:20.479Z,13.61
2022-10-22T01:36:30.742Z,13.61
2022-10-22T01:36:41.001Z,13.60
2022-10-22T01:36:51.264Z,13.58
2022-10-22T01:37:01.525Z,13.60
2022-10-22T01:37:11.791Z,13.62
2022-10-22T01:37:22.046Z,13.60
2022-10-22T01:37:32.310Z,13.61
2022-10-22T01:37:42.958Z,13.58
2022-10-22T01:37:52.823Z,13.60
2022-10-22T01:38:03.085Z,13.61
2022-10-22T01:38:13.347Z,13.60
2022-10-22T01:38:23.609Z,13.60
2022-10-22T01:38:33.872Z,13.60
2022-10-22T01:38:44.132Z,13.61
2022-10-22T01:38:54.393Z,13.61
2022-10-22T01:39:04.728Z,13.60
2022-10-22T01:39:14.991Z,13.60
2022-10-22T01:39:25.252Z,13.60
2022-10-22T01:39:35.514Z,13.60
2022-10-22T01:39:45.775Z,13.60
2022-10-22T01:39:56.038Z,13.58
2022-10-22T01:40:06.299Z,13.58
2022-10-22T01:40:16.567Z,13.57
2022-10-22T01:40:26.825Z,13.61
2022-10-22T01:40:37.086Z,13.58
2022-10-22T01:40:47.362Z,13.58
2022-10-22T01:40:57.640Z,13.60
2022-10-22T01:41:07.903Z,13.58
2022-10-22T01:41:18.164Z,13.58
2022-10-22T01:41:28.426Z,13.60
2022-10-22T01:41:38.683Z,13.60
2022-10-22T01:41:48.944Z,13.58
2022-10-22T01:41:59.203Z,13.58
2022-10-22T01:42:09.467Z,13.58
2022-10-22T01:42:19.729Z,13.60
2022-10-22T01:42:29.988Z,13.58
2022-10-22T01:42:40.248Z,13.58
2022-10-22T01:42:50.509Z,13.58
2022-10-22T01:43:00.779Z,13.58
2022-10-22T01:43:11.034Z,13.57
2022-10-22T01:43:21.293Z,13.58
2022-10-22T01:43:31.562Z,13.58
2022-10-22T01:43:41.814Z,13.60
2022-10-22T01:43:52.076Z,13.60
2022-10-22T01:44:02.337Z,13.58
2022-10-22T01:44:12.598Z,13.58
2022-10-22T01:44:22.911Z,13.57
2022-10-22T01:44:33.242Z,13.60
2022-10-22T01:44:43.336Z,13.57
2022-10-22T01:44:53.701Z,13.57
2022-10-22T01:45:03.948Z,13.57
2022-10-22T01:45:14.181Z,13.57
2022-10-22T01:45:24.439Z,13.57
2022-10-22T01:45:34.703Z,13.57
2022-10-22T01:45:44.981Z,13.55
2022-10-22T01:45:55.239Z,13.57
2022-10-22T01:46:05.498Z,13.57
2022-10-22T01:46:15.761Z,13.57
2022-10-22T01:46:26.025Z,13.58
2022-10-22T01:46:36.287Z,13.57
2022-10-22T01:46:46.549Z,13.60
2022-10-22T01:46:56.808Z,13.58
2022-10-22T01:47:07.072Z,13.57
2022-10-22T01:47:17.333Z,13.57
2022-10-22T01:47:27.595Z,13.55
2022-10-22T01:47:38.081Z,13.57
2022-10-22T01:47:48.084Z,13.57
2022-10-22T01:47:58.346Z,13.58
2022-10-22T01:48:08.605Z,13.54
2022-10-22T01:48:18.976Z,13.57
2022-10-22T01:48:29.236Z,13.55
2022-10-22T01:48:39.499Z,13.55
2022-10-22T01:48:49.758Z,13.57
2022-10-22T01:49:00.024Z,13.57
2022-10-22T01:49:10.279Z,13.58
2022-10-22T01:49:20.541Z,13.57
2022-10-22T01:49:30.803Z,13.57
2022-10-22T01:49:41.063Z,13.55
2022-10-22T01:49:51.325Z,13.55
2022-10-22T01:50:01.588Z,13.57
2022-10-22T01:50:11.849Z,13.57
2022-10-22T01:50:22.112Z,13.57
2022-10-22T01:50:32.367Z,13.57
2022-10-22T01:50:42.643Z,13.57
2022-10-22T01:50:52.904Z,13.57
2022-10-22T01:51:03.168Z,13.55
2022-10-22T01:51:13.428Z,13.55
2022-10-22T01:51:23.691Z,13.57
2022-10-22T01:51:33.952Z,13.55
2022-10-22T01:51:44.216Z,13.57
2022-10-22T01:51:54.476Z,13.58
2022-10-22T01:52:04.873Z,13.55
2022-10-22T01:52:15.133Z,13.55
2022-10-22T01:52:25.395Z,13.57
2022-10-22T01:52:35.656Z,13.55
2022-10-22T01:52:45.933Z,13.57
2022-10-22T01:52:56.181Z,13.57
2022-10-22T01:53:06.445Z,13.55
2022-10-22T01:53:16.708Z,13.58
2022-10-22T01:53:26.968Z,13.57
2022-10-22T01:53:37.271Z,13.58
2022-10-22T01:53:47.460Z,13.55
2022-10-22T01:53:57.725Z,13.57
2022-10-22T01:54:07.989Z,13.57
2022-10-22T01:54:18.333Z,13.58
2022-10-22T01:54:28.598Z,13.55
2022-10-22T01:54:38.858Z,13.55
2022-10-22T01:54:49.119Z,13.57
2022-10-22T01:54:59.382Z,13.57
2022-10-22T01:55:09.643Z,13.55
2022-10-22T01:55:19.903Z,13.57
2022-10-22T01:55:30.166Z,13.57
2022-10-22T01:55:40.443Z,13.57
2022-10-22T01:55:50.704Z,13.55
2022-10-22T01:56:00.968Z,13.57
2022-10-22T01:56:11.229Z,13.57
2022-10-22T01:56:21.490Z,13.55
2022-10-22T01:56:31.753Z,13.57
2022-10-22T01:56:42.014Z,13.55
2022-10-22T01:56:52.276Z,13.58
2022-10-22T01:57:02.536Z,13.55
2022-10-22T01:57:12.799Z,13.57
2022-10-22T01:57:23.061Z,13.55
2022-10-22T01:57:33.321Z,13.57
2022-10-22T01:57:43.944Z,13.55
2022-10-22T01:57:54.010Z,13.55
2022-10-22T01:58:04.271Z,13.55
2022-10-22T01:58:14.533Z,13.55
2022-10-22T01:58:24.796Z,13.55
2022-10-22T01:58:35.058Z,13.54
2022-10-22T01:58:45.320Z,13.54
2022-10-22T01:58:55.581Z,13.57
2022-10-22T01:59:05.843Z,13.57
2022-10-22T01:59:16.104Z,13.57
2022-10-22T01:59:26.368Z,13.54
2022-10-22T01:59:36.651Z,13.55
2022-10-22T01:59:46.892Z,13.54
2022-10-22T01:59:57.152Z,13.55
2022-10-22T02:00:07.424Z,13.57
2022-10-22T02:00:17.676Z,13.57
2022-10-22T02:00:27.989Z,13.57
2022-10-22T02:00:38.340Z,13.54
2022-10-22T02:00:48.641Z,13.55
2022-10-22T02:00:58.882Z,13.55
2022-10-22T02:01:09.162Z,13.55
2022-10-22T02:01:19.422Z,13.54
2022-10-22T02:01:29.683Z,13.55
2022-10-22T02:01:39.945Z,13.57
2022-10-22T02:01:50.209Z,13.55
2022-10-22T02:02:00.470Z,13.54
2022-10-22T02:02:10.729Z,13.55
2022-10-22T02:02:20.995Z,13.55
2022-10-22T02:02:31.252Z,13.55
2022-10-22T02:02:41.574Z,13.55
2022-10-22T02:02:52.134Z,13.54
2022-10-22T02:03:02.180Z,13.55
2022-10-22T02:03:12.472Z,13.54
2022-10-22T02:03:23.756Z,13.54
2022-10-22T02:03:32.971Z,13.55
2022-10-22T02:03:43.250Z,13.55
2022-10-22T02:03:53.492Z,13.57
2022-10-22T02:04:03.752Z,13.54
2022-10-22T02:04:14.012Z,13.55
2022-10-22T02:04:24.312Z,13.55
2022-10-22T02:04:34.560Z,13.55
2022-10-22T02:04:44.813Z,13.55
2022-10-22T02:04:55.075Z,13.55
2022-10-22T02:05:05.342Z,13.54
2022-10-22T02:05:15.596Z,13.57
2022-10-22T02:05:25.863Z,13.57
2022-10-22T02:05:36.128Z,13.55
2022-10-22T02:05:46.397Z,13.55
2022-10-22T02:05:56.673Z,13.55
2022-10-22T02:06:06.920Z,13.52
2022-10-22T02:06:17.178Z,13.54
2022-10-22T02:06:27.440Z,13.55
2022-10-22T02:06:37.703Z,13.54
2022-10-22T02:06:47.963Z,13.54
2022-10-22T02:06:58.224Z,13.57
2022-10-22T02:07:08.491Z,13.54
2022-10-22T02:07:18.739Z,13.57
2022-10-22T02:07:29.001Z,13.54
2022-10-22T02:07:39.744Z,13.54
2022-10-22T02:07:49.506Z,13.55
2022-10-22T02:07:59.766Z,13.52
2022-10-22T02:08:10.046Z,13.54
2022-10-22T02:08:20.295Z,13.54
2022-10-22T02:08:30.552Z,13.54
2022-10-22T02:08:40.868Z,13.54
2022-10-22T02:08:51.179Z,13.52
2022-10-22T02:09:01.502Z,13.54
2022-10-22T02:09:11.793Z,13.54
2022-10-22T02:09:22.047Z,13.54
2022-10-22T02:09:32.308Z,13.52
2022-10-22T02:09:42.569Z,13.54
2022-10-22T02:09:52.831Z,13.54
2022-10-22T02:10:03.092Z,13.54
2022-10-22T02:10:13.354Z,13.50
2022-10-22T02:10:23.615Z,13.54
2022-10-22T02:10:33.885Z,13.54
2022-10-22T02:10:44.159Z,13.54
2022-10-22T02:10:54.422Z,13.52
2022-10-22T02:11:04.767Z,13.54
2022-10-22T02:11:15.029Z,13.52
2022-10-22T02:11:25.291Z,13.52
2022-10-22T02:11:35.551Z,13.52
2022-10-22T02:11:45.812Z,13.52
2022-10-22T02:11:56.146Z,13.52
2022-10-22T02:12:16.851Z,13.50
2022-10-22T02:12:27.117Z,13.52
2022-10-22T02:12:37.755Z,13.50